createdAt,value
2022-10-11T00:02:05.970Z,1.88
2022-10-11T00:04:32.648Z,2.03
2022-10-11T00:06:59.423Z,1.55
2022-10-11T00:09:26.107Z,1.25
2022-10-11T00:11:56.207Z,1.25
2022-10-11T00:14:24.703Z,1.13
2022-10-11T00:16:51.811Z,1.55
2022-10-11T00:19:18.716Z,1.65
2022-10-11T00:21:46.035Z,1.10
2022-10-11T00:24:16.158Z,1.58
2022-10-11T00:26:46.765Z,1.05
2022-10-11T00:29:13.835Z,1.73
2022-10-11T00:31:40.652Z,1.42
2022-10-11T00:34:07.500Z,1.75
2022-10-11T00:36:34.500Z,1.52
2022-10-11T00:39:01.132Z,1.40
2022-10-11T00:41:28.002Z,2.05
2022-10-11T00:44:11.548Z,1.73
2022-10-11T00:46:38.962Z,1.60
2022-10-11T00:49:14.365Z,1.30
2022-10-11T00:51:52.372Z,1.55
2022-10-11T00:54:24.012Z,1.30
2022-10-11T00:56:56.103Z,2.10
2022-10-11T00:59:27.795Z,1.05
2022-10-11T01:01:54.735Z,1.40
2022-10-11T01:04:21.740Z,1.40
2022-10-11T01:06:49.684Z,1.20
2022-10-11T01:09:17.585Z,1.83
2022-10-11T01:11:44.958Z,1.63
2022-10-11T01:14:33.370Z,1.30
2022-10-11T01:17:00.023Z,1.63
2022-10-11T01:20:04.990Z,1.50
2022-10-11T01:22:55.516Z,1.30
2022-10-11T01:25:39.115Z,2.72
2022-10-11T01:28:33.634Z,1.90
2022-10-11T01:31:41.096Z,1.80
2022-10-11T01:34:30.973Z,1.50
2022-10-11T01:37:07.768Z,2.50
2022-10-11T01:39:46.324Z,1.58
2022-10-11T01:42:14.518Z,1.40
2022-10-11T01:44:44.802Z,1.48
2022-10-11T01:47:11.464Z,1.48
2022-10-11T01:49:38.443Z,1.58
2022-10-11T01:52:07.087Z,1.27
2022-10-11T01:55:08.618Z,1.20
2022-10-11T01:57:54.084Z,1.23
2022-10-11T02:00:24.407Z,2.05
2022-10-11T02:03:08.770Z,1.60
2022-10-11T02:06:06.207Z,1.45
2022-10-11T02:08:41.468Z,1.30
2022-10-11T02:11:27.526Z,1.65
2022-10-11T02:14:06.486Z,1.13
2022-10-11T02:16:55.083Z,2.67
2022-10-11T02:19:27.812Z,1.80
2022-10-11T02:22:01.228Z,1.45
2022-10-11T02:24:31.395Z,1.60
2022-10-11T02:27:01.224Z,1.15
2022-10-11T02:29:31.656Z,1.52
2022-10-11T02:32:00.576Z,1.08
2022-10-11T02:34:44.830Z,1.67
2022-10-11T02:37:14.475Z,1.35
2022-10-11T02:39:53.787Z,1.67
2022-10-11T02:42:26.949Z,1.20
2022-10-11T02:45:05.653Z,1.77
2022-10-11T02:47:33.374Z,1.38
2022-10-11T02:50:00.514Z,2.03
2022-10-11T02:52:30.070Z,1.75
2022-10-11T02:54:56.809Z,1.85
2022-10-11T02:57:23.439Z,1.42
2022-10-11T02:59:50.177Z,1.38
2022-10-11T03:02:16.900Z,1.60
2022-10-11T03:04:43.540Z,1.50
2022-10-11T03:07:10.219Z,1.58
2022-10-11T03:09:36.923Z,1.75
2022-10-11T03:12:03.719Z,1.58
2022-10-11T03:14:30.419Z,1.40
2022-10-11T03:17:12.114Z,1.25
2022-10-11T03:19:43.781Z,1.60
2022-10-11T03:22:10.396Z,1.98
2022-10-11T03:24:37.051Z,1.73
2022-10-11T03:27:03.816Z,1.98
2022-10-11T03:29:30.595Z,1.88
2022-10-11T03:31:57.322Z,1.65
2022-10-11T03:34:24.029Z,2.30
2022-10-11T03:36:51.007Z,2.13
2022-10-11T03:39:17.698Z,2.03
2022-10-11T03:41:44.379Z,1.83
2022-10-11T03:44:11.120Z,1.75
2022-10-11T03:46:37.908Z,1.98
2022-10-11T03:49:04.588Z,2.30
2022-10-11T03:51:31.846Z,1.75
2022-10-11T03:53:58.568Z,2.60
2022-10-11T03:56:25.298Z,2.15
2022-10-11T03:58:51.960Z,1.63
2022-10-11T04:01:18.747Z,1.73
2022-10-11T04:03:45.478Z,1.52
2022-10-11T04:06:12.167Z,1.60
2022-10-11T04:08:38.850Z,1.80
2022-10-11T04:11:05.875Z,1.67
2022-10-11T04:13:32.600Z,1.90
2022-10-11T04:15:59.291Z,1.85
2022-10-11T04:18:25.915Z,1.80
2022-10-11T04:20:52.628Z,2.00
2022-10-11T04:23:19.281Z,1.98
2022-10-11T04:25:46.985Z,2.40
2022-10-11T04:28:14.078Z,3.00
2022-10-11T04:30:40.747Z,2.80
2022-10-11T04:33:07.428Z,2.90
2022-10-11T04:35:34.112Z,2.53
2022-10-11T04:38:00.802Z,2.60
2022-10-11T04:40:27.499Z,2.42
2022-10-11T04:42:54.185Z,2.78
2022-10-11T04:45:24.024Z,2.85
2022-10-11T04:47:50.663Z,2.60
2022-10-11T04:50:17.506Z,2.70
2022-10-11T04:52:44.203Z,2.30
2022-10-11T04:55:11.404Z,2.72
2022-10-11T04:57:38.102Z,2.85
2022-10-11T05:00:05.722Z,2.92
2022-10-11T05:02:32.538Z,3.15
2022-10-11T05:04:59.519Z,2.63
2022-10-11T05:07:26.281Z,3.08
2022-10-11T05:09:52.952Z,2.83
2022-10-11T05:12:19.938Z,2.75
2022-10-11T05:14:46.644Z,2.45
2022-10-11T05:17:13.372Z,2.55
2022-10-11T05:19:39.990Z,2.80
2022-10-11T05:22:06.715Z,3.10
2022-10-11T05:24:33.524Z,2.60
2022-10-11T05:27:03.288Z,2.55
2022-10-11T05:29:30.563Z,2.83
2022-10-11T05:31:57.624Z,2.55
2022-10-11T05:34:24.311Z,3.13
2022-10-11T05:36:51.050Z,3.50
2022-10-11T05:39:17.816Z,3.45
2022-10-11T05:41:44.591Z,3.60
2022-10-11T05:44:11.266Z,3.78
2022-10-11T05:46:38.476Z,4.15
2022-10-11T05:49:05.232Z,3.83
2022-10-11T05:51:31.911Z,4.63
2022-10-11T05:53:58.609Z,3.75
2022-10-11T05:56:26.509Z,5.10
2022-10-11T05:58:53.274Z,4.07
2022-10-11T06:01:23.754Z,3.72
2022-10-11T06:03:50.850Z,4.10
2022-10-11T06:06:17.864Z,4.72
2022-10-11T06:08:44.923Z,4.60
2022-10-11T06:11:13.967Z,4.70
2022-10-11T06:13:41.456Z,4.28
2022-10-11T06:16:09.144Z,3.92
2022-10-11T06:18:36.027Z,4.38
2022-10-11T06:21:02.958Z,4.05
2022-10-11T06:23:29.822Z,4.05
2022-10-11T06:26:00.733Z,4.32
2022-10-11T06:28:28.891Z,4.60
2022-10-11T06:30:56.895Z,4.25
2022-10-11T06:33:24.272Z,4.25
2022-10-11T06:35:57.898Z,4.47
2022-10-11T06:38:24.847Z,4.38
2022-10-11T06:40:51.620Z,4.05
2022-10-11T06:43:18.665Z,4.50
2022-10-11T06:45:45.353Z,4.82
2022-10-11T06:48:12.019Z,4.28
2022-10-11T06:50:58.680Z,4.07
2022-10-11T06:53:26.273Z,4.43
2022-10-11T06:55:52.981Z,4.68
2022-10-11T06:58:19.756Z,3.40
2022-10-11T07:00:46.503Z,4.28
2022-10-11T07:03:13.350Z,4.18
2022-10-11T07:05:40.071Z,4.38
2022-10-11T07:08:06.864Z,4.90
2022-10-11T07:10:35.752Z,4.88
2022-10-11T07:13:02.467Z,5.10
2022-10-11T07:15:29.186Z,5.65
2022-10-11T07:17:55.891Z,5.20
2022-10-11T07:20:22.571Z,5.25
2022-10-11T07:22:49.313Z,5.68
2022-10-11T07:25:16.035Z,5.43
2022-10-11T07:27:42.686Z,4.95
2022-10-11T07:30:10.588Z,5.07
2022-10-11T07:32:37.241Z,5.63
2022-10-11T07:35:04.152Z,4.93
2022-10-11T07:37:30.828Z,5.35
2022-10-11T07:39:57.467Z,5.55
2022-10-11T07:42:24.140Z,5.70
2022-10-11T07:44:50.862Z,5.65
2022-10-11T07:47:17.488Z,5.97
2022-10-11T07:49:44.133Z,5.00
2022-10-11T07:52:10.859Z,5.75
2022-10-11T07:54:37.879Z,5.63
2022-10-11T07:57:04.576Z,4.85
2022-10-11T07:59:36.840Z,5.90
2022-10-11T08:02:03.612Z,5.47
2022-10-11T08:04:30.272Z,5.22
2022-10-11T08:06:56.933Z,5.45
2022-10-11T08:09:23.585Z,5.03
2022-10-11T08:11:50.198Z,4.30
2022-10-11T08:14:18.245Z,4.68
2022-10-11T08:16:45.143Z,4.35
2022-10-11T08:19:27.998Z,5.13
2022-10-11T08:21:54.747Z,5.22
2022-10-11T08:24:29.619Z,4.22
2022-10-11T08:26:57.815Z,5.18
2022-10-11T08:29:24.443Z,5.35
2022-10-11T08:31:51.226Z,5.25
2022-10-11T08:34:17.861Z,5.20
2022-10-11T08:36:44.513Z,4.25
2022-10-11T08:39:11.489Z,3.90
2022-10-11T08:41:41.775Z,4.43
2022-10-11T08:44:51.845Z,4.82
2022-10-11T08:47:24.708Z,4.10
2022-10-11T08:49:51.868Z,4.80
2022-10-11T08:52:26.144Z,4.43
2022-10-11T08:55:08.013Z,4.38
2022-10-11T08:57:39.119Z,3.63
2022-10-11T09:00:15.334Z,3.75
2022-10-11T09:03:11.248Z,3.20
2022-10-11T09:05:58.181Z,3.22
2022-10-11T09:08:51.810Z,3.40
2022-10-11T09:11:30.481Z,3.33
2022-10-11T09:14:09.020Z,3.95
2022-10-11T09:16:58.539Z,4.13
2022-10-11T09:19:40.657Z,5.32
2022-10-11T09:22:30.263Z,3.30
2022-10-11T09:25:27.530Z,2.88
2022-10-11T09:28:19.203Z,3.38
2022-10-11T09:30:52.658Z,3.45
2022-10-11T09:33:40.150Z,2.97
2022-10-11T09:36:37.400Z,3.38
2022-10-11T09:39:26.092Z,4.20
2022-10-11T09:42:12.346Z,3.90
2022-10-11T09:44:50.393Z,4.07
2022-10-11T09:47:20.000Z,3.53
2022-10-11T09:49:58.962Z,3.28
2022-10-11T09:52:26.091Z,4.93
2022-10-11T09:54:59.083Z,4.57
2022-10-11T09:57:29.952Z,4.55
2022-10-11T10:00:05.829Z,4.07
2022-10-11T10:03:02.750Z,3.72
2022-10-11T10:05:36.945Z,9.85
2022-10-11T10:08:09.716Z,3.58
2022-10-11T10:10:41.500Z,3.80
2022-10-11T10:13:29.851Z,3.35
2022-10-11T10:16:01.271Z,3.33
2022-10-11T10:18:34.356Z,3.42
2022-10-11T10:21:02.091Z,3.08
2022-10-11T10:23:34.862Z,3.42
2022-10-11T10:26:17.708Z,3.50
2022-10-11T10:29:17.013Z,2.83
2022-10-11T10:35:00.395Z,2.83
2022-10-11T10:37:33.592Z,3.17
2022-10-11T10:40:09.643Z,3.00
2022-10-11T10:42:36.973Z,3.45
2022-10-11T10:45:12.196Z,2.65
2022-10-11T10:48:10.765Z,2.58
2022-10-11T10:51:15.774Z,3.25
2022-10-11T10:53:47.290Z,3.03
2022-10-11T10:56:31.712Z,3.53
2022-10-11T10:59:25.085Z,3.35
2022-10-11T11:02:43.185Z,3.08
2022-10-11T11:05:37.757Z,2.55
2022-10-11T11:08:15.699Z,2.63
2022-10-11T11:11:12.461Z,2.70
2022-10-11T11:14:00.627Z,2.45
2022-10-11T11:16:42.628Z,2.55
2022-10-11T11:19:28.123Z,2.42
2022-10-11T11:22:06.030Z,2.55
2022-10-11T11:25:10.833Z,2.40
2022-10-11T11:28:01.924Z,2.20
2022-10-11T11:30:36.448Z,2.55
2022-10-11T11:33:32.844Z,2.53
2022-10-11T11:36:05.658Z,2.45
2022-10-11T11:39:15.670Z,2.45
2022-10-11T11:41:51.435Z,3.10
2022-10-11T11:44:31.275Z,2.00
2022-10-11T11:47:05.107Z,1.90
2022-10-11T11:49:34.935Z,1.58
2022-10-11T11:52:04.342Z,1.40
2022-10-11T11:54:52.537Z,2.08
2022-10-11T11:57:52.859Z,1.58
2022-10-11T12:00:21.963Z,1.48
2022-10-11T12:03:17.090Z,1.75
2022-10-11T12:06:17.426Z,1.95
2022-10-11T12:08:48.401Z,2.00
2022-10-11T12:11:35.286Z,2.22
2022-10-11T12:14:32.809Z,1.83
2022-10-11T12:17:16.207Z,2.00
2022-10-11T12:20:08.388Z,1.85
2022-10-11T12:22:35.040Z,1.80
2022-10-11T12:25:21.942Z,1.40
2022-10-11T12:27:50.981Z,1.42
2022-10-11T12:30:42.635Z,1.13
2022-10-11T12:33:21.517Z,1.05
2022-10-11T12:35:54.083Z,1.17
2022-10-11T12:38:22.269Z,1.58
2022-10-11T12:40:57.091Z,1.20
2022-10-11T12:43:33.293Z,1.20
2022-10-11T12:46:29.102Z,1.25
2022-10-11T12:49:32.693Z,0.98
2022-10-11T12:52:04.026Z,1.25
2022-10-11T12:55:28.255Z,1.20
2022-10-11T12:58:16.070Z,0.90
2022-10-11T13:01:05.135Z,1.52
2022-10-11T13:03:39.838Z,2.13
2022-10-11T13:06:15.583Z,1.23
2022-10-11T13:08:46.224Z,1.48
2022-10-11T13:11:19.853Z,0.80
2022-10-11T13:13:58.648Z,1.55
2022-10-11T13:16:28.615Z,1.13
2022-10-11T13:18:59.387Z,1.20
2022-10-11T13:21:36.182Z,0.82
2022-10-11T13:24:11.643Z,0.70
2022-10-11T13:26:39.167Z,1.17
2022-10-11T13:29:19.125Z,0.70
2022-10-11T13:31:49.619Z,1.23
2022-10-11T13:34:19.725Z,1.13
2022-10-11T13:36:57.542Z,0.77
2022-10-11T13:39:31.770Z,1.15
2022-10-11T13:41:59.696Z,0.70
2022-10-11T13:44:26.891Z,0.90
2022-10-11T13:46:54.043Z,0.80
2022-10-11T13:49:37.343Z,1.10
2022-10-11T13:52:18.424Z,1.13
2022-10-11T13:55:00.335Z,0.90
2022-10-11T13:57:45.131Z,0.93
2022-10-11T14:02:58.248Z,0.63
2022-10-11T14:05:36.305Z,0.90
2022-10-11T14:08:07.454Z,0.77
2022-10-11T14:10:34.445Z,0.75
2022-10-11T14:13:23.757Z,1.40
2022-10-11T14:16:09.447Z,0.60
2022-10-11T14:19:02.055Z,1.10
2022-10-11T14:21:45.774Z,1.20
2022-10-11T14:24:14.510Z,1.30
2022-10-11T14:26:44.391Z,1.10
2022-10-11T14:29:17.607Z,1.00
2022-10-11T14:31:44.353Z,0.95
2022-10-11T14:34:20.767Z,2.78
2022-10-11T14:36:48.808Z,1.08
2022-10-11T14:39:18.743Z,1.55
2022-10-11T14:41:45.557Z,0.88
2022-10-11T14:44:12.789Z,1.25
2022-10-11T14:46:41.352Z,1.00
2022-10-11T14:49:15.677Z,1.10
2022-10-11T14:51:44.327Z,0.82
2022-10-11T14:54:11.216Z,1.48
2022-10-11T14:56:38.206Z,1.45
2022-10-11T14:59:05.521Z,1.30
2022-10-11T15:01:32.361Z,2.17
2022-10-11T15:03:59.197Z,1.10
2022-10-11T15:06:29.787Z,1.67
2022-10-11T15:08:56.570Z,1.77
2022-10-11T15:11:23.616Z,1.35
2022-10-11T15:13:50.876Z,1.90
2022-10-11T15:16:19.781Z,2.10
2022-10-11T15:18:50.883Z,1.80
2022-10-11T15:21:22.574Z,1.60
2022-10-11T15:23:50.749Z,1.48
2022-10-11T15:26:20.330Z,1.73
2022-10-11T15:28:48.323Z,2.38
2022-10-11T15:31:15.260Z,3.17
2022-10-11T15:33:42.114Z,3.22
2022-10-11T15:36:13.567Z,2.25
2022-10-11T15:38:40.912Z,1.45
2022-10-11T15:41:08.501Z,3.22
2022-10-11T15:43:35.117Z,2.47
2022-10-11T15:46:02.819Z,3.35
2022-10-11T15:48:29.886Z,4.22
2022-10-11T15:50:56.762Z,2.50
2022-10-11T15:53:28.392Z,2.22
2022-10-11T15:55:57.819Z,1.83
2022-10-11T15:58:32.312Z,1.27
2022-10-11T16:01:05.376Z,1.13
2022-10-11T16:03:33.269Z,1.35
2022-10-11T16:06:04.871Z,1.25
2022-10-11T16:08:33.229Z,1.55
2022-10-11T16:11:00.078Z,2.20
2022-10-11T16:13:27.016Z,1.45
2022-10-11T16:15:54.093Z,1.90
2022-10-11T16:18:22.163Z,2.80
2022-10-11T16:20:51.744Z,2.30
2022-10-11T16:23:20.093Z,1.88
2022-10-11T16:25:56.202Z,2.10
2022-10-11T16:28:23.069Z,2.30
2022-10-11T16:30:49.755Z,2.50
2022-10-11T16:33:16.488Z,2.05
2022-10-11T16:35:43.288Z,3.00
2022-10-11T16:38:10.350Z,2.40
2022-10-11T16:40:38.595Z,2.70
2022-10-11T16:43:07.896Z,3.20
2022-10-11T16:45:35.083Z,2.63
2022-10-11T16:48:01.957Z,2.65
2022-10-11T16:50:29.293Z,3.40
2022-10-11T16:52:56.072Z,3.28
2022-10-11T16:55:23.152Z,2.90
2022-10-11T16:57:49.852Z,3.05
2022-10-11T17:00:16.806Z,3.40
2022-10-11T17:02:43.513Z,2.65
2022-10-11T17:05:10.288Z,2.60
2022-10-11T17:07:37.073Z,2.63
2022-10-11T17:10:04.520Z,2.83
2022-10-11T17:12:32.622Z,2.90
2022-10-11T17:15:00.671Z,3.67
2022-10-11T17:17:28.322Z,3.42
2022-10-11T17:19:55.016Z,3.22
2022-10-11T17:22:21.736Z,3.13
2022-10-11T17:24:48.353Z,3.00
2022-10-11T17:27:15.073Z,3.25
2022-10-11T17:29:42.102Z,3.03
2022-10-11T17:32:08.884Z,2.92
2022-10-11T17:34:35.739Z,3.78
2022-10-11T17:37:02.473Z,2.55
2022-10-11T17:39:29.194Z,2.85
2022-10-11T17:41:55.977Z,3.35
2022-10-11T17:44:22.744Z,3.75
2022-10-11T17:46:49.604Z,3.33
2022-10-11T17:49:16.760Z,3.20
2022-10-11T17:51:43.582Z,3.17
2022-10-11T17:54:12.871Z,4.03
2022-10-11T17:56:41.223Z,4.30
2022-10-11T17:59:11.027Z,4.68
2022-10-11T18:01:38.315Z,2.53
2022-10-11T18:04:06.222Z,3.10
2022-10-11T18:06:38.094Z,3.15
2022-10-11T18:09:04.834Z,2.90
2022-10-11T18:11:31.756Z,2.80
2022-10-11T18:13:58.492Z,2.28
2022-10-11T18:16:27.385Z,2.88
2022-10-11T18:18:54.759Z,2.85
2022-10-11T18:21:21.471Z,3.03
2022-10-11T18:23:48.181Z,3.30
2022-10-11T18:26:20.726Z,2.97
2022-10-11T18:28:48.486Z,2.83
2022-10-11T18:31:19.377Z,3.20
2022-10-11T18:33:46.941Z,2.92
2022-10-11T18:36:15.586Z,3.05
2022-10-11T18:38:46.159Z,2.80
2022-10-11T18:41:18.171Z,2.95
2022-10-11T18:43:53.613Z,2.63
2022-10-11T18:46:21.508Z,4.03
2022-10-11T18:48:50.410Z,5.45
2022-10-11T18:51:22.826Z,5.22
2022-10-11T18:53:49.704Z,7.15
2022-10-11T18:56:20.688Z,6.20
2022-10-11T18:58:50.258Z,6.70
2022-10-11T19:01:23.369Z,6.72
2022-10-11T19:03:52.943Z,6.15
2022-10-11T19:06:26.180Z,6.80
2022-10-11T19:09:14.331Z,6.90
2022-10-11T19:11:41.739Z,5.80
2022-10-11T19:14:11.574Z,7.22
2022-10-11T19:16:43.906Z,7.10
2022-10-11T19:19:12.524Z,6.13
2022-10-11T19:21:39.734Z,5.45
2022-10-11T19:24:06.679Z,5.63
2022-10-11T19:26:36.179Z,5.50
2022-10-11T19:29:07.774Z,5.22
2022-10-11T19:31:36.471Z,4.85
2022-10-11T19:34:03.705Z,5.22
2022-10-11T19:36:35.571Z,5.25
2022-10-11T19:39:04.703Z,4.05
2022-10-11T19:41:31.859Z,5.15
2022-10-11T19:43:58.652Z,4.88
2022-10-11T19:49:15.748Z,7.90
2022-10-11T19:51:42.404Z,7.60
2022-10-11T19:54:16.009Z,7.85
2022-10-11T19:56:43.723Z,8.20
2022-10-11T19:59:11.552Z,7.93
2022-10-11T20:01:38.646Z,6.05
2022-10-11T20:04:07.995Z,6.00
2022-10-11T20:06:38.916Z,5.30
2022-10-11T20:11:53.970Z,5.50
2022-10-11T20:14:20.673Z,4.40
2022-10-11T20:16:50.175Z,5.03
2022-10-11T20:19:17.242Z,18.13
2022-10-11T20:21:44.889Z,16.08
2022-10-11T20:24:11.635Z,13.98
2022-10-11T20:26:39.058Z,12.18
2022-10-11T20:29:05.743Z,10.05
2022-10-11T20:31:34.764Z,8.02
2022-10-11T20:34:04.051Z,8.05
2022-10-11T20:36:31.540Z,7.32
2022-10-11T20:38:59.507Z,7.32
2022-10-11T20:41:32.115Z,5.80
2022-10-11T20:44:00.101Z,6.35
2022-10-11T20:46:32.643Z,5.35
2022-10-11T20:49:05.111Z,5.18
2022-10-11T20:51:34.088Z,4.40
2022-10-11T20:54:02.110Z,4.07
2022-10-11T20:56:29.692Z,4.43
2022-10-11T20:58:57.578Z,5.22
2022-10-11T21:01:27.763Z,4.75
2022-10-11T21:03:56.719Z,5.68
2022-10-11T21:06:23.452Z,4.60
2022-10-11T21:08:50.099Z,3.97
2022-10-11T21:11:16.792Z,4.13
2022-10-11T21:13:43.452Z,4.47
2022-10-11T21:16:16.190Z,5.75
2022-10-11T21:18:43.138Z,4.75
2022-10-11T21:21:14.549Z,4.70
2022-10-11T21:23:41.810Z,4.55
2022-10-11T21:26:10.654Z,4.78
2022-10-11T21:28:38.121Z,4.65
2022-10-11T21:31:16.545Z,4.78
2022-10-11T21:33:44.224Z,4.80
2022-10-11T21:36:19.340Z,5.18
2022-10-11T21:38:46.540Z,4.40
2022-10-11T21:41:16.046Z,4.60
2022-10-11T21:43:43.097Z,4.20
2022-10-11T21:46:20.426Z,4.28
2022-10-11T21:48:49.877Z,5.18
2022-10-11T21:51:25.347Z,4.72
2022-10-11T21:53:53.311Z,4.07
2022-10-11T21:56:20.002Z,4.07
2022-10-11T21:58:48.141Z,4.72
2022-10-11T22:01:15.418Z,4.65
2022-10-11T22:03:42.332Z,3.42
2022-10-11T22:06:09.495Z,4.00
2022-10-11T22:08:36.254Z,3.80
2022-10-11T22:11:02.966Z,3.83
2022-10-11T22:13:32.228Z,4.07
2022-10-11T22:16:03.520Z,4.18
2022-10-11T22:18:33.503Z,4.22
2022-10-11T22:21:15.362Z,4.30
2022-10-11T22:23:44.718Z,4.15
2022-10-11T22:26:14.343Z,3.88
2022-10-11T22:28:41.147Z,4.18
2022-10-11T22:31:09.202Z,4.03
2022-10-11T22:33:36.328Z,4.10
2022-10-11T22:36:05.784Z,3.65
2022-10-11T22:38:32.666Z,4.10
2022-10-11T22:40:59.435Z,3.78
2022-10-11T22:43:26.139Z,2.92
2022-10-11T22:45:52.872Z,3.60
2022-10-11T22:48:19.815Z,4.38
2022-10-11T22:50:46.830Z,3.42
2022-10-11T22:53:14.003Z,4.30
2022-10-11T22:55:40.824Z,3.45
2022-10-11T22:58:07.582Z,3.75
2022-10-11T23:00:34.237Z,4.03
2022-10-11T23:03:01.073Z,3.88
2022-10-11T23:05:27.762Z,4.43
2022-10-11T23:07:54.498Z,3.35
2022-10-11T23:10:21.231Z,3.97
2022-10-11T23:12:47.960Z,4.82
2022-10-11T23:15:15.286Z,3.90
2022-10-11T23:17:42.415Z,3.70
2022-10-11T23:20:09.948Z,4.28
2022-10-11T23:22:36.637Z,3.50
2022-10-11T23:25:03.761Z,3.53
2022-10-11T23:27:30.543Z,3.72
2022-10-11T23:29:57.219Z,3.13
2022-10-11T23:32:24.149Z,3.33
2022-10-11T23:34:51.626Z,3.30
2022-10-11T23:37:18.277Z,3.40
2022-10-11T23:39:45.283Z,3.58
2022-10-11T23:42:11.993Z,2.70
2022-10-11T23:44:38.652Z,3.50
2022-10-11T23:47:05.431Z,3.13
2022-10-11T23:49:32.180Z,2.90
2022-10-11T23:51:58.853Z,3.08
2022-10-11T23:54:25.573Z,2.67
2022-10-11T23:56:52.225Z,2.47
2022-10-11T23:59:18.953Z,2.97
